createdAt,value
2022-07-30T00:02:04.312Z,17.64
2022-07-30T00:04:44.464Z,17.62
2022-07-30T00:07:31.502Z,17.61
2022-07-30T00:10:14.178Z,17.62
2022-07-30T00:13:07.469Z,17.61
2022-07-30T00:15:54.493Z,17.60
2022-07-30T00:18:27.572Z,17.58
2022-07-30T00:21:32.621Z,17.58
2022-07-30T00:24:10.711Z,17.57
2022-07-30T00:26:58.819Z,17.57
2022-07-30T00:29:34.902Z,17.58
2022-07-30T00:32:26.184Z,17.57
2022-07-30T00:35:06.490Z,17.55
2022-07-30T00:37:55.514Z,17.57
2022-07-30T00:40:38.977Z,17.57
2022-07-30T00:43:25.509Z,17.56
2022-07-30T00:45:58.571Z,17.56
2022-07-30T00:48:45.538Z,17.55
2022-07-30T00:51:25.513Z,17.54
2022-07-30T00:54:12.527Z,17.53
2022-07-30T00:56:45.596Z,17.53
2022-07-30T00:59:34.496Z,17.52
2022-07-30T01:02:07.626Z,17.52
2022-07-30T01:04:54.487Z,17.51
2022-07-30T01:07:34.537Z,17.51
2022-07-30T01:10:22.498Z,17.48
2022-07-30T01:13:02.534Z,17.48
2022-07-30T01:15:50.489Z,17.47
2022-07-30T01:18:31.508Z,17.47
2022-07-30T01:21:22.541Z,17.44
2022-07-30T01:23:59.591Z,17.45
2022-07-30T01:26:53.563Z,17.45
2022-07-30T01:29:46.540Z,17.45
2022-07-30T01:32:20.621Z,17.43
2022-07-30T01:35:08.533Z,17.43
2022-07-30T01:37:50.540Z,17.43
2022-07-30T01:40:45.554Z,17.43
2022-07-30T01:43:33.511Z,17.43
2022-07-30T01:46:16.598Z,17.44
2022-07-30T01:49:05.581Z,17.44
2022-07-30T01:51:50.540Z,17.45
2022-07-30T01:54:39.591Z,17.45
2022-07-30T01:57:20.538Z,17.44
2022-07-30T02:00:14.969Z,17.45
2022-07-30T02:02:55.554Z,17.43
2022-07-30T02:05:53.574Z,17.44
2022-07-30T02:08:57.555Z,17.44
2022-07-30T02:12:09.578Z,17.45
2022-07-30T02:14:52.658Z,17.44
2022-07-30T02:17:46.545Z,17.43
2022-07-30T02:20:32.535Z,17.43
2022-07-30T02:23:26.533Z,17.42
2022-07-30T02:26:00.807Z,17.41
2022-07-30T02:28:50.559Z,17.41
2022-07-30T02:31:27.712Z,17.40
2022-07-30T02:34:15.605Z,17.37
2022-07-30T02:37:00.817Z,17.37
2022-07-30T02:39:58.538Z,17.34
2022-07-30T02:42:53.568Z,17.31
2022-07-30T02:45:43.558Z,17.30
2022-07-30T02:48:34.305Z,17.30
2022-07-30T02:51:32.563Z,17.30
2022-07-30T02:54:21.615Z,17.29
2022-07-30T02:56:57.810Z,17.29
2022-07-30T02:59:47.586Z,17.27
2022-07-30T03:02:26.510Z,17.26
2022-07-30T03:05:17.555Z,17.25
2022-07-30T03:07:52.663Z,17.24
2022-07-30T03:10:40.573Z,17.23
2022-07-30T03:13:16.671Z,17.22
2022-07-30T03:16:05.607Z,17.22
2022-07-30T03:18:41.643Z,17.20
2022-07-30T03:21:33.566Z,17.22
2022-07-30T03:24:08.669Z,17.22
2022-07-30T03:26:58.970Z,17.23
2022-07-30T03:29:33.955Z,17.23
2022-07-30T03:32:26.018Z,17.24
2022-07-30T03:35:05.671Z,17.24
2022-07-30T03:37:55.583Z,17.25
2022-07-30T03:40:36.587Z,17.24
2022-07-30T03:43:33.264Z,17.25
2022-07-30T03:46:20.690Z,17.27
2022-07-30T03:48:53.697Z,17.27
2022-07-30T03:51:41.656Z,17.29
2022-07-30T03:54:24.608Z,17.29
2022-07-30T03:57:20.278Z,17.31
2022-07-30T04:00:07.596Z,17.31
2022-07-30T04:02:50.652Z,17.31
2022-07-30T04:05:41.317Z,17.32
2022-07-30T04:08:14.649Z,17.32
2022-07-30T04:11:05.647Z,17.31
2022-07-30T04:13:38.694Z,17.31
2022-07-30T04:16:41.633Z,17.31
2022-07-30T04:19:28.671Z,17.29
2022-07-30T04:22:10.598Z,17.29
2022-07-30T04:24:58.580Z,17.28
2022-07-30T04:28:03.003Z,17.27
2022-07-30T04:30:50.629Z,17.25
2022-07-30T04:33:30.594Z,17.22
2022-07-30T04:36:24.602Z,17.23
2022-07-30T04:39:11.637Z,17.24
2022-07-30T04:41:49.145Z,17.25
2022-07-30T04:44:36.605Z,17.24
2022-07-30T04:47:09.710Z,17.26
2022-07-30T04:50:01.952Z,17.27
2022-07-30T04:52:38.683Z,17.29
2022-07-30T04:55:27.644Z,17.30
2022-07-30T04:58:02.019Z,17.31
2022-07-30T05:00:48.625Z,17.31
2022-07-30T05:03:29.639Z,17.31
2022-07-30T05:06:27.753Z,17.32
2022-07-30T05:09:14.616Z,17.34
2022-07-30T05:11:47.691Z,17.34
2022-07-30T05:14:34.638Z,17.34
2022-07-30T05:17:07.759Z,17.37
2022-07-30T05:19:54.595Z,17.36
2022-07-30T05:22:30.131Z,17.38
2022-07-30T05:25:16.613Z,17.40
2022-07-30T05:28:10.628Z,17.43
2022-07-30T05:30:57.710Z,17.45
2022-07-30T05:33:40.828Z,17.48
2022-07-30T05:36:28.643Z,17.50
2022-07-30T05:39:01.713Z,17.51
2022-07-30T05:41:48.649Z,17.52
2022-07-30T05:44:28.629Z,17.55
2022-07-30T05:47:22.803Z,17.56
2022-07-30T05:50:09.642Z,17.57
2022-07-30T05:52:42.757Z,17.58
2022-07-30T05:55:29.647Z,17.58
2022-07-30T05:58:08.755Z,17.58
2022-07-30T06:00:55.635Z,17.57
2022-07-30T06:03:28.738Z,17.59
2022-07-30T06:06:19.678Z,17.61
2022-07-30T06:09:02.663Z,17.63
2022-07-30T06:11:49.645Z,17.63
2022-07-30T06:14:29.660Z,17.65
2022-07-30T06:17:23.658Z,17.68
2022-07-30T06:20:17.663Z,17.69
2022-07-30T06:23:04.653Z,17.71
2022-07-30T06:25:39.859Z,17.72
2022-07-30T06:28:42.068Z,17.74
2022-07-30T06:31:22.784Z,17.77
2022-07-30T06:34:16.666Z,17.78
2022-07-30T06:37:03.991Z,17.80
2022-07-30T06:39:56.753Z,17.84
2022-07-30T06:42:44.649Z,17.86
2022-07-30T06:45:17.762Z,17.89
2022-07-30T06:48:05.662Z,17.92
2022-07-30T06:50:45.660Z,17.96
2022-07-30T06:53:42.266Z,17.98
2022-07-30T06:56:29.667Z,18.00
2022-07-30T06:59:02.770Z,18.03
2022-07-30T07:01:49.755Z,18.07
2022-07-30T07:04:29.720Z,18.10
2022-07-30T07:07:40.907Z,18.13
2022-07-30T07:10:28.652Z,18.17
2022-07-30T07:13:08.687Z,18.19
2022-07-30T07:16:02.678Z,18.24
2022-07-30T07:18:56.692Z,18.30
2022-07-30T07:21:43.693Z,18.34
2022-07-30T07:24:16.826Z,18.42
2022-07-30T07:27:03.802Z,18.53
2022-07-30T07:29:37.777Z,18.68
2022-07-30T07:32:24.724Z,18.75
2022-07-30T07:34:57.780Z,18.89
2022-07-30T07:37:44.718Z,18.96
2022-07-30T07:40:25.696Z,19.05
2022-07-30T07:43:12.700Z,19.11
2022-07-30T07:45:45.897Z,19.17
2022-07-30T07:48:32.698Z,19.26
2022-07-30T07:51:13.715Z,19.33
2022-07-30T07:54:20.892Z,19.40
2022-07-30T07:57:07.719Z,19.45
2022-07-30T07:59:43.808Z,19.51
2022-07-30T08:02:30.750Z,19.55
2022-07-30T08:05:04.177Z,19.65
2022-07-30T08:07:51.719Z,19.74
2022-07-30T08:10:31.733Z,19.84
2022-07-30T08:13:51.663Z,19.88
2022-07-30T08:16:32.814Z,19.89
2022-07-30T08:19:05.800Z,19.92
2022-07-30T08:21:52.705Z,19.94
2022-07-30T08:24:26.182Z,19.97
2022-07-30T08:27:12.712Z,19.96
2022-07-30T08:29:45.818Z,19.96
2022-07-30T08:32:32.742Z,19.95
2022-07-30T08:35:12.737Z,19.95
2022-07-30T08:38:06.734Z,19.91
2022-07-30T08:40:53.725Z,19.85
2022-07-30T08:43:27.809Z,19.80
2022-07-30T08:46:18.725Z,19.75
2022-07-30T08:49:05.416Z,19.75
2022-07-30T08:52:04.096Z,19.77
2022-07-30T08:54:50.831Z,19.79
2022-07-30T08:57:23.908Z,19.80
2022-07-30T09:00:12.798Z,19.82
2022-07-30T09:02:52.762Z,19.86
2022-07-30T09:05:39.747Z,19.91
2022-07-30T09:08:13.838Z,19.98
2022-07-30T09:11:05.759Z,20.03
2022-07-30T09:13:45.085Z,20.11
2022-07-30T09:16:33.771Z,20.18
2022-07-30T09:19:25.758Z,20.22
2022-07-30T09:22:13.767Z,20.23
2022-07-30T09:24:56.770Z,20.25
2022-07-30T09:27:55.780Z,20.23
2022-07-30T09:30:35.757Z,20.22
2022-07-30T09:33:38.783Z,20.18
2022-07-30T09:36:23.780Z,20.15
2022-07-30T09:39:17.767Z,20.15
2022-07-30T09:42:04.989Z,20.11
2022-07-30T09:44:45.782Z,20.09
2022-07-30T09:47:40.794Z,20.06
2022-07-30T09:50:30.216Z,20.08
2022-07-30T09:53:24.809Z,20.07
2022-07-30T09:56:31.769Z,20.08
2022-07-30T09:59:18.628Z,20.07
2022-07-30T10:02:13.794Z,20.05
2022-07-30T10:05:00.764Z,20.04
2022-07-30T10:07:42.669Z,20.04
2022-07-30T10:10:36.777Z,20.03
2022-07-30T10:13:21.147Z,20.02
2022-07-30T10:16:07.802Z,20.00
2022-07-30T10:18:41.870Z,20.03
2022-07-30T10:21:28.810Z,20.04
2022-07-30T10:24:12.805Z,20.06
2022-07-30T10:27:08.227Z,20.08
2022-07-30T10:29:54.802Z,20.09
2022-07-30T10:32:30.959Z,20.12
2022-07-30T10:35:34.916Z,20.12
2022-07-30T10:38:16.923Z,20.14
2022-07-30T10:41:47.554Z,20.15
2022-07-30T10:44:28.108Z,20.17
2022-07-30T10:47:18.818Z,20.17
2022-07-30T10:50:29.151Z,20.16
2022-07-30T10:53:15.805Z,20.15
2022-07-30T10:55:55.819Z,20.12
2022-07-30T10:59:16.826Z,20.05
2022-07-30T11:02:07.230Z,19.97
2022-07-30T11:04:47.812Z,19.92
2022-07-30T11:07:42.828Z,19.83
2022-07-30T11:10:45.813Z,19.75
2022-07-30T11:13:18.904Z,19.69
2022-07-30T11:16:11.862Z,19.63
2022-07-30T11:19:55.836Z,19.55
2022-07-30T11:22:37.817Z,19.45
2022-07-30T11:25:50.387Z,19.37
2022-07-30T11:28:50.844Z,19.33
2022-07-30T11:31:57.915Z,19.30
2022-07-30T11:34:39.850Z,19.29
2022-07-30T11:37:32.405Z,19.27
2022-07-30T11:40:05.911Z,19.27
2022-07-30T11:42:52.846Z,19.26
2022-07-30T11:45:29.461Z,19.27
2022-07-30T11:48:22.849Z,19.26
2022-07-30T11:51:04.107Z,19.27
2022-07-30T11:53:57.863Z,19.27
2022-07-30T11:57:02.164Z,19.27
2022-07-30T11:59:43.850Z,19.28
2022-07-30T12:02:43.900Z,19.30
2022-07-30T12:05:40.853Z,19.31
2022-07-30T12:08:36.479Z,19.33
2022-07-30T12:11:22.883Z,19.36
2022-07-30T12:14:13.849Z,19.39
2022-07-30T12:17:15.237Z,19.41
2022-07-30T12:20:09.965Z,19.43
2022-07-30T12:22:56.844Z,19.47
2022-07-30T12:25:29.947Z,19.50
2022-07-30T12:28:17.870Z,19.56
2022-07-30T12:30:50.959Z,19.61
2022-07-30T12:33:42.120Z,19.64
2022-07-30T12:36:22.877Z,19.67
2022-07-30T12:39:18.868Z,19.71
2022-07-30T12:42:05.860Z,19.72
2022-07-30T12:44:56.890Z,19.75
2022-07-30T12:47:50.870Z,19.77
2022-07-30T12:50:44.885Z,19.79
2022-07-30T12:53:35.867Z,19.83
2022-07-30T12:56:27.907Z,19.86
2022-07-30T12:59:34.876Z,19.89
2022-07-30T13:02:37.880Z,19.93
2022-07-30T13:05:12.112Z,19.96
2022-07-30T13:08:03.893Z,20.01
2022-07-30T13:10:36.976Z,20.03
2022-07-30T13:13:23.885Z,20.06
2022-07-30T13:16:09.030Z,20.09
2022-07-30T13:18:55.894Z,20.11
2022-07-30T13:21:29.961Z,20.15
2022-07-30T13:24:18.400Z,20.17
2022-07-30T13:26:58.888Z,20.20
2022-07-30T13:29:52.920Z,20.22
2022-07-30T13:32:39.903Z,20.23
2022-07-30T13:35:20.943Z,20.28
2022-07-30T13:38:08.911Z,20.32
2022-07-30T13:40:50.905Z,20.35
2022-07-30T13:43:37.930Z,20.36
2022-07-30T13:46:12.108Z,20.38
2022-07-30T13:48:59.022Z,20.40
2022-07-30T13:51:32.020Z,20.44
2022-07-30T13:54:18.927Z,20.48
2022-07-30T13:56:52.007Z,20.55
2022-07-30T13:59:38.948Z,20.62
2022-07-30T14:02:12.531Z,20.67
2022-07-30T14:04:58.917Z,20.71
2022-07-30T14:07:32.024Z,20.76
2022-07-30T14:10:18.927Z,20.77
2022-07-30T14:12:55.046Z,20.79
2022-07-30T14:15:41.987Z,20.78
2022-07-30T14:18:15.077Z,20.78
2022-07-30T14:21:01.935Z,20.77
2022-07-30T14:23:35.007Z,20.81
2022-07-30T14:26:21.919Z,20.84
2022-07-30T14:29:15.940Z,20.85
2022-07-30T14:32:09.991Z,20.85
2022-07-30T14:35:04.002Z,20.88
2022-07-30T14:37:57.943Z,20.91
2022-07-30T14:40:44.951Z,20.91
2022-07-30T14:43:19.579Z,20.92
2022-07-30T14:46:05.941Z,20.91
2022-07-30T14:48:45.996Z,20.91
2022-07-30T14:51:39.947Z,20.93
2022-07-30T14:54:35.010Z,20.95
2022-07-30T14:57:28.960Z,20.97
2022-07-30T15:00:24.366Z,20.99
2022-07-30T15:03:10.947Z,20.99
2022-07-30T15:05:52.461Z,20.99
2022-07-30T15:08:46.000Z,20.96
2022-07-30T15:12:07.655Z,20.94
2022-07-30T15:14:40.270Z,20.93
2022-07-30T15:17:20.962Z,20.92
2022-07-30T15:19:54.078Z,20.92
2022-07-30T15:22:40.972Z,20.92
2022-07-30T15:25:15.032Z,20.93
2022-07-30T15:28:08.989Z,20.92
2022-07-30T15:31:03.020Z,20.93
2022-07-30T15:33:51.013Z,20.94
2022-07-30T15:36:24.107Z,20.95
2022-07-30T15:39:11.992Z,20.94
2022-07-30T15:41:58.722Z,20.96
2022-07-30T15:45:15.316Z,20.94
2022-07-30T15:48:07.006Z,20.94
2022-07-30T15:50:53.983Z,20.94
2022-07-30T15:53:27.058Z,20.94
2022-07-30T15:56:13.993Z,20.91
2022-07-30T15:58:47.131Z,20.91
2022-07-30T16:01:34.098Z,20.88
2022-07-30T16:04:19.654Z,20.88
2022-07-30T16:07:08.002Z,20.86
2022-07-30T16:09:41.057Z,20.85
2022-07-30T16:12:28.049Z,20.81
2022-07-30T16:15:11.010Z,20.80
2022-07-30T16:17:58.024Z,20.79
2022-07-30T16:20:31.353Z,20.79
2022-07-30T16:23:21.265Z,20.77
2022-07-30T16:26:02.016Z,20.78
2022-07-30T16:28:56.012Z,20.77
2022-07-30T16:31:46.034Z,20.75
2022-07-30T16:34:26.733Z,20.75
2022-07-30T16:37:14.012Z,20.73
2022-07-30T16:39:47.145Z,20.72
2022-07-30T16:42:34.016Z,20.71
2022-07-30T16:45:07.145Z,20.70
2022-07-30T16:47:55.026Z,20.70
2022-07-30T16:50:28.272Z,20.70
2022-07-30T16:53:16.054Z,20.66
2022-07-30T16:55:50.137Z,20.64
2022-07-30T16:58:37.034Z,20.61
2022-07-30T17:01:10.258Z,20.58
2022-07-30T17:03:57.043Z,20.55
2022-07-30T17:06:30.176Z,20.54
2022-07-30T17:09:17.032Z,20.51
2022-07-30T17:11:54.206Z,20.50
2022-07-30T17:14:49.044Z,20.47
2022-07-30T17:17:29.059Z,20.47
2022-07-30T17:20:17.049Z,20.44
2022-07-30T17:23:02.032Z,20.43
2022-07-30T17:25:56.049Z,20.40
2022-07-30T17:28:44.029Z,20.38
2022-07-30T17:31:24.055Z,20.38
2022-07-30T17:34:18.048Z,20.35
2022-07-30T17:37:05.051Z,20.32
2022-07-30T17:40:26.446Z,20.30
2022-07-30T17:42:46.062Z,20.26
2022-07-30T17:45:26.037Z,20.25
2022-07-30T17:48:20.051Z,20.22
2022-07-30T17:51:07.055Z,20.20
2022-07-30T17:53:40.121Z,20.19
2022-07-30T17:56:27.498Z,20.16
2022-07-30T17:59:13.503Z,20.15
2022-07-30T18:02:08.068Z,20.12
2022-07-30T18:04:56.575Z,20.10
2022-07-30T18:07:30.180Z,20.08
2022-07-30T18:10:18.083Z,20.08
2022-07-30T18:12:54.156Z,20.07
2022-07-30T18:15:41.091Z,20.06
2022-07-30T18:18:14.142Z,20.05
2022-07-30T18:21:01.062Z,20.02
2022-07-30T18:23:41.077Z,19.98
2022-07-30T18:26:29.067Z,19.94
2022-07-30T18:29:02.176Z,19.90
2022-07-30T18:31:49.096Z,19.86
2022-07-30T18:34:22.250Z,19.83
2022-07-30T18:37:09.083Z,19.79
2022-07-30T18:39:49.070Z,19.77
2022-07-30T18:42:36.085Z,19.74
2022-07-30T18:45:09.237Z,19.70
2022-07-30T18:47:56.097Z,19.66
2022-07-30T18:50:30.192Z,19.63
2022-07-30T18:53:17.117Z,19.59
2022-07-30T18:55:58.103Z,19.56
2022-07-30T18:58:45.092Z,19.52
2022-07-30T19:01:18.444Z,19.51
2022-07-30T19:04:05.118Z,19.46
2022-07-30T19:06:45.088Z,19.43
2022-07-30T19:09:39.115Z,19.40
2022-07-30T19:12:26.099Z,19.34
2022-07-30T19:15:10.076Z,19.31
2022-07-30T19:18:06.098Z,19.26
2022-07-30T19:20:53.130Z,19.22
2022-07-30T19:23:26.277Z,19.19
2022-07-30T19:26:13.103Z,19.16
2022-07-30T19:28:46.185Z,19.16
2022-07-30T19:31:34.128Z,19.13
2022-07-30T19:34:11.191Z,19.10
2022-07-30T19:36:58.118Z,19.07
2022-07-30T19:39:31.251Z,19.06
2022-07-30T19:42:22.114Z,19.04
2022-07-30T19:44:55.198Z,19.04
2022-07-30T19:47:43.121Z,19.02
2022-07-30T19:50:17.206Z,19.01
2022-07-30T19:53:05.133Z,19.01
2022-07-30T19:55:45.151Z,19.01
2022-07-30T19:58:40.122Z,18.99
2022-07-30T20:01:40.374Z,18.98
2022-07-30T20:04:35.149Z,18.98
2022-07-30T20:07:22.180Z,18.98
2022-07-30T20:10:08.146Z,18.98
2022-07-30T20:12:55.190Z,18.97
2022-07-30T20:15:30.357Z,18.97
2022-07-30T20:18:17.132Z,18.96
2022-07-30T20:21:02.236Z,18.96
2022-07-30T20:23:49.168Z,18.93
2022-07-30T20:26:29.071Z,18.91
2022-07-30T20:29:19.222Z,18.88
2022-07-30T20:32:01.472Z,18.86
2022-07-30T20:34:55.165Z,18.85
2022-07-30T20:37:55.485Z,18.83
2022-07-30T20:40:38.155Z,18.80
2022-07-30T20:43:27.453Z,18.78
2022-07-30T20:46:02.352Z,18.76
2022-07-30T20:48:59.581Z,18.73
2022-07-30T20:51:40.191Z,18.71
2022-07-30T20:54:34.173Z,18.70
2022-07-30T20:57:56.924Z,18.68
2022-07-30T21:00:25.192Z,18.65
2022-07-30T21:03:13.591Z,18.65
2022-07-30T21:05:47.270Z,18.63
2022-07-30T21:08:34.169Z,18.60
2022-07-30T21:11:15.189Z,18.59
2022-07-30T21:14:02.282Z,18.60
2022-07-30T21:16:35.357Z,18.60
2022-07-30T21:19:25.169Z,18.60
2022-07-30T21:22:02.464Z,18.61
2022-07-30T21:24:49.282Z,18.61
2022-07-30T21:27:23.070Z,18.63
2022-07-30T21:30:16.246Z,18.61
2022-07-30T21:32:49.275Z,18.60
2022-07-30T21:35:36.174Z,18.61
2022-07-30T21:38:14.271Z,18.59
2022-07-30T21:41:02.174Z,18.58
2022-07-30T21:43:42.212Z,18.58
2022-07-30T21:46:30.234Z,18.57
2022-07-30T21:49:08.327Z,18.57
2022-07-30T21:51:55.221Z,18.57
2022-07-30T21:54:32.256Z,18.56
2022-07-30T21:57:23.164Z,18.55
2022-07-30T22:00:08.193Z,18.55
2022-07-30T22:02:56.205Z,18.55
2022-07-30T22:05:38.817Z,18.55
2022-07-30T22:08:26.207Z,18.54
2022-07-30T22:11:08.883Z,18.55
2022-07-30T22:14:03.193Z,18.55
2022-07-30T22:16:59.227Z,18.55
2022-07-30T22:19:39.226Z,18.53
2022-07-30T22:22:27.427Z,18.53
2022-07-30T22:25:03.680Z,18.53
2022-07-30T22:28:04.198Z,18.51
2022-07-30T22:30:58.239Z,18.50
2022-07-30T22:33:45.215Z,18.47
2022-07-30T22:36:25.390Z,18.47
2022-07-30T22:39:19.217Z,18.44
2022-07-30T22:42:06.692Z,18.43
2022-07-30T22:44:47.431Z,18.42
2022-07-30T22:47:51.520Z,18.40
2022-07-30T22:50:34.235Z,18.38
2022-07-30T22:54:10.595Z,18.34
2022-07-30T22:56:41.239Z,18.33
2022-07-30T22:59:14.332Z,18.31
2022-07-30T23:02:04.679Z,18.27
2022-07-30T23:04:38.319Z,18.25
2022-07-30T23:07:34.538Z,18.24
2022-07-30T23:10:17.936Z,18.22
2022-07-30T23:13:21.234Z,18.18
2022-07-30T23:16:01.247Z,18.15
2022-07-30T23:18:55.228Z,18.13
2022-07-30T23:21:42.231Z,18.10
2022-07-30T23:24:22.344Z,18.07
2022-07-30T23:27:09.236Z,18.04
2022-07-30T23:29:42.320Z,18.02
2022-07-30T23:32:29.230Z,18.01
2022-07-30T23:35:02.324Z,18.00
2022-07-30T23:37:50.251Z,17.98
2022-07-30T23:40:24.355Z,17.97
2022-07-30T23:43:11.268Z,17.97
2022-07-30T23:45:44.617Z,17.96
2022-07-30T23:48:31.278Z,17.93
2022-07-30T23:51:14.261Z,17.92
2022-07-30T23:54:08.265Z,17.91
2022-07-30T23:57:00.485Z,17.88
2022-07-30T23:59:40.488Z,17.88
